createdAt,value
2023-01-27T00:00:53.248Z,8.40
2023-01-27T00:03:21.326Z,8.50
2023-01-27T00:05:49.134Z,8.50
2023-01-27T00:08:16.326Z,8.60
2023-01-27T00:10:43.617Z,8.60
2023-01-27T00:13:28.176Z,8.60
2023-01-27T00:15:56.119Z,8.50
2023-01-27T00:18:23.908Z,8.60
2023-01-27T00:21:09.538Z,8.60
2023-01-27T00:23:55.264Z,8.50
2023-01-27T00:26:22.278Z,8.40
2023-01-27T00:28:49.083Z,8.50
2023-01-27T00:31:36.110Z,8.40
2023-01-27T00:34:09.309Z,8.40
2023-01-27T00:36:40.912Z,8.50
2023-01-27T00:39:09.807Z,8.50
2023-01-27T00:41:36.705Z,8.60
2023-01-27T00:44:05.665Z,8.40
2023-01-27T00:46:33.164Z,8.40
2023-01-27T00:49:00.110Z,8.40
2023-01-27T00:51:26.978Z,8.40
2023-01-27T00:53:53.824Z,8.30
2023-01-27T00:56:20.672Z,8.20
2023-01-27T00:58:47.732Z,8.30
2023-01-27T01:01:17.417Z,8.30
2023-01-27T01:03:45.010Z,8.30
2023-01-27T01:06:14.342Z,8.40
2023-01-27T01:08:41.858Z,8.50
2023-01-27T01:11:11.507Z,8.30
2023-01-27T01:13:38.266Z,8.50
2023-01-27T01:16:10.897Z,8.60
2023-01-27T01:18:39.100Z,8.50
2023-01-27T01:21:07.100Z,8.60
2023-01-27T01:23:37.924Z,8.30
2023-01-27T01:26:05.170Z,8.50
2023-01-27T01:28:32.290Z,8.50
2023-01-27T01:31:25.459Z,8.50
2023-01-27T01:33:52.249Z,8.50
2023-01-27T01:36:20.774Z,8.60
2023-01-27T01:38:48.347Z,8.60
2023-01-27T01:41:18.993Z,8.60
2023-01-27T01:43:45.962Z,8.50
2023-01-27T01:46:13.325Z,8.40
2023-01-27T01:48:41.342Z,8.50
2023-01-27T01:51:13.909Z,8.40
2023-01-27T01:53:52.592Z,8.50
2023-01-27T01:56:25.274Z,8.50
2023-01-27T01:58:54.659Z,8.50
2023-01-27T02:01:21.978Z,8.50
2023-01-27T02:03:53.502Z,8.50
2023-01-27T02:06:21.616Z,8.50
2023-01-27T02:08:50.683Z,8.50
2023-01-27T02:11:17.934Z,8.40
2023-01-27T02:13:45.305Z,8.40
2023-01-27T02:16:12.848Z,8.40
2023-01-27T02:18:43.522Z,8.30
2023-01-27T02:21:10.668Z,8.40
2023-01-27T02:23:55.622Z,8.40
2023-01-27T02:26:33.513Z,8.40
2023-01-27T02:29:11.321Z,8.50
2023-01-27T02:31:38.345Z,8.50
2023-01-27T02:34:09.207Z,8.50
2023-01-27T02:36:43.865Z,8.50
2023-01-27T02:39:15.053Z,8.40
2023-01-27T02:41:48.143Z,8.30
2023-01-27T02:44:15.326Z,8.20
2023-01-27T02:46:42.369Z,8.20
2023-01-27T02:49:09.447Z,8.10
2023-01-27T02:51:36.471Z,8.10
2023-01-27T02:54:03.684Z,8.10
2023-01-27T02:56:30.670Z,8.30
2023-01-27T02:58:57.698Z,8.20
2023-01-27T03:01:25.433Z,8.30
2023-01-27T03:03:52.872Z,8.30
2023-01-27T03:06:20.688Z,8.40
2023-01-27T03:08:47.786Z,8.30
2023-01-27T03:11:15.032Z,8.40
2023-01-27T03:13:42.073Z,8.40
2023-01-27T03:16:29.526Z,8.30
2023-01-27T03:18:56.641Z,8.30
2023-01-27T03:21:23.666Z,8.20
2023-01-27T03:23:50.553Z,8.30
2023-01-27T03:26:17.411Z,8.10
2023-01-27T03:29:04.185Z,8.20
2023-01-27T03:31:34.026Z,8.20
2023-01-27T03:34:07.138Z,8.40
2023-01-27T03:36:52.666Z,8.30
2023-01-27T03:39:38.117Z,8.20
2023-01-27T03:42:23.812Z,8.30
2023-01-27T03:45:09.442Z,8.20
2023-01-27T03:47:36.411Z,8.10
2023-01-27T03:50:03.443Z,8.00
2023-01-27T03:52:30.309Z,8.10
2023-01-27T03:54:57.116Z,8.20
2023-01-27T03:57:24.053Z,8.20
2023-01-27T03:59:50.966Z,8.10
2023-01-27T04:02:36.353Z,8.20
2023-01-27T04:05:21.702Z,8.10
2023-01-27T04:07:48.787Z,8.10
2023-01-27T04:10:15.999Z,8.10
2023-01-27T04:12:42.885Z,8.10
2023-01-27T04:15:09.965Z,8.20
2023-01-27T04:17:38.930Z,8.20
2023-01-27T04:20:06.701Z,8.00
2023-01-27T04:22:33.582Z,8.00
2023-01-27T04:25:00.598Z,8.10
2023-01-27T04:27:27.898Z,8.00
2023-01-27T04:29:54.785Z,7.90
2023-01-27T04:32:21.811Z,7.90
2023-01-27T04:34:48.976Z,7.90
2023-01-27T04:37:15.877Z,7.90
2023-01-27T04:39:45.373Z,8.10
2023-01-27T04:42:12.264Z,8.10
2023-01-27T04:44:39.079Z,8.00
2023-01-27T04:47:05.917Z,8.10
2023-01-27T04:49:32.931Z,8.00
2023-01-27T04:51:59.737Z,8.00
2023-01-27T04:54:26.648Z,8.00
2023-01-27T04:56:59.858Z,8.10
2023-01-27T04:59:27.250Z,8.10
2023-01-27T05:01:54.441Z,8.10
2023-01-27T05:04:21.691Z,8.10
2023-01-27T05:06:48.714Z,8.00
2023-01-27T05:09:15.538Z,8.00
2023-01-27T05:11:42.398Z,8.00
2023-01-27T05:14:09.312Z,8.00
2023-01-27T05:16:38.642Z,8.10
2023-01-27T05:19:05.725Z,8.10
2023-01-27T05:21:32.729Z,8.00
2023-01-27T05:23:59.612Z,8.00
2023-01-27T05:26:28.318Z,7.90
2023-01-27T05:28:58.515Z,8.00
2023-01-27T05:31:31.707Z,8.00
2023-01-27T05:34:00.713Z,8.00
2023-01-27T05:36:28.727Z,8.00
2023-01-27T05:38:56.661Z,7.90
2023-01-27T05:41:23.843Z,7.80
2023-01-27T05:43:56.055Z,7.60
2023-01-27T05:46:25.916Z,7.50
2023-01-27T05:48:55.383Z,7.50
2023-01-27T05:51:24.827Z,7.60
2023-01-27T05:53:52.501Z,7.60
2023-01-27T05:56:19.970Z,7.40
2023-01-27T05:58:47.419Z,7.40
2023-01-27T06:01:14.279Z,7.60
2023-01-27T06:03:42.203Z,7.50
2023-01-27T06:06:10.812Z,7.60
2023-01-27T06:08:38.734Z,7.50
2023-01-27T06:11:06.634Z,7.50
2023-01-27T06:13:38.973Z,7.60
2023-01-27T06:16:08.659Z,7.60
2023-01-27T06:18:36.552Z,7.50
2023-01-27T06:21:05.345Z,7.50
2023-01-27T06:23:32.470Z,7.40
2023-01-27T06:26:19.090Z,7.40
2023-01-27T06:28:46.423Z,7.40
2023-01-27T06:31:17.355Z,7.40
2023-01-27T06:33:44.809Z,7.40
2023-01-27T06:36:16.866Z,7.50
2023-01-27T06:38:44.552Z,7.40
2023-01-27T06:41:12.195Z,7.30
2023-01-27T06:43:39.029Z,7.30
2023-01-27T06:46:06.587Z,7.30
2023-01-27T06:48:34.152Z,7.40
2023-01-27T06:51:01.422Z,7.30
2023-01-27T06:53:28.886Z,7.30
2023-01-27T06:56:00.587Z,7.20
2023-01-27T06:58:28.011Z,7.30
2023-01-27T07:00:55.228Z,7.30
2023-01-27T07:03:22.857Z,7.20
2023-01-27T07:05:50.071Z,7.30
2023-01-27T07:08:17.350Z,7.20
2023-01-27T07:10:44.419Z,7.40
2023-01-27T07:13:13.466Z,7.30
2023-01-27T07:15:40.639Z,7.40
2023-01-27T07:18:07.529Z,7.50
2023-01-27T07:20:34.426Z,7.50
2023-01-27T07:23:03.853Z,7.50
2023-01-27T07:25:32.064Z,7.40
2023-01-27T07:28:00.403Z,7.40
2023-01-27T07:30:28.638Z,7.30
2023-01-27T07:32:55.648Z,7.30
2023-01-27T07:35:23.419Z,7.20
2023-01-27T07:37:50.515Z,7.40
2023-01-27T07:40:18.581Z,7.30
2023-01-27T07:42:45.620Z,7.20
2023-01-27T07:45:12.864Z,7.20
2023-01-27T07:47:40.113Z,7.10
2023-01-27T07:50:07.906Z,7.20
2023-01-27T07:52:34.739Z,7.20
2023-01-27T07:55:01.663Z,7.30
2023-01-27T07:57:28.602Z,7.20
2023-01-27T07:59:56.797Z,7.10
2023-01-27T08:02:24.246Z,7.10
2023-01-27T08:04:53.627Z,7.20
2023-01-27T08:07:21.578Z,7.10
2023-01-27T08:09:48.572Z,7.10
2023-01-27T08:12:15.646Z,7.00
2023-01-27T08:14:42.635Z,7.20
2023-01-27T08:17:09.630Z,7.10
2023-01-27T08:19:36.743Z,6.90
2023-01-27T08:22:03.678Z,6.90
2023-01-27T08:24:30.797Z,6.80
2023-01-27T08:26:57.919Z,6.90
2023-01-27T08:29:25.231Z,6.90
2023-01-27T08:31:52.157Z,6.90
2023-01-27T08:34:19.370Z,7.00
2023-01-27T08:36:46.379Z,6.80
2023-01-27T08:39:13.697Z,6.80
2023-01-27T08:41:40.846Z,6.80
2023-01-27T08:44:07.860Z,6.90
2023-01-27T08:46:34.773Z,6.80
2023-01-27T08:49:01.778Z,7.00
2023-01-27T08:51:28.934Z,7.00
2023-01-27T08:53:56.251Z,6.90
2023-01-27T08:56:23.357Z,7.00
2023-01-27T08:58:52.364Z,6.90
2023-01-27T09:01:20.651Z,7.00
2023-01-27T09:03:47.989Z,6.90
2023-01-27T09:06:17.133Z,7.10
2023-01-27T09:08:44.922Z,7.10
2023-01-27T09:11:15.082Z,7.10
2023-01-27T09:13:42.367Z,7.00
2023-01-27T09:16:09.983Z,7.00
2023-01-27T09:18:36.944Z,7.10
2023-01-27T09:21:05.641Z,7.10
2023-01-27T09:23:35.295Z,7.20
2023-01-27T09:26:02.127Z,7.10
2023-01-27T09:28:29.017Z,7.10
2023-01-27T09:30:59.822Z,7.20
2023-01-27T09:33:27.425Z,7.10
2023-01-27T09:36:07.926Z,7.20
2023-01-27T09:38:44.105Z,7.10
2023-01-27T09:41:26.273Z,7.20
2023-01-27T09:43:59.090Z,7.20
2023-01-27T09:46:50.979Z,7.20
2023-01-27T09:49:38.705Z,7.20
2023-01-27T09:52:47.826Z,7.30
2023-01-27T09:55:24.322Z,7.30
2023-01-27T09:58:18.569Z,7.40
2023-01-27T10:01:30.243Z,7.40
2023-01-27T10:04:34.451Z,7.30
2023-01-27T10:07:09.969Z,7.20
2023-01-27T10:09:57.190Z,7.30
2023-01-27T10:12:58.243Z,7.20
2023-01-27T10:15:46.507Z,7.50
2023-01-27T10:18:43.276Z,7.60
2023-01-27T10:21:46.100Z,7.60
2023-01-27T10:24:40.701Z,7.40
2023-01-27T10:27:18.151Z,7.50
2023-01-27T10:29:47.049Z,7.60
2023-01-27T10:32:33.751Z,7.70
2023-01-27T10:35:06.543Z,7.80
2023-01-27T10:38:09.957Z,7.70
2023-01-27T10:40:51.695Z,7.80
2023-01-27T10:43:56.929Z,7.80
2023-01-27T10:46:29.753Z,7.90
2023-01-27T10:49:24.978Z,8.00
2023-01-27T10:52:01.820Z,8.30
2023-01-27T10:54:54.032Z,8.10
2023-01-27T10:57:47.496Z,8.20
2023-01-27T11:00:57.887Z,8.10
2023-01-27T11:03:34.457Z,8.10
2023-01-27T11:06:15.880Z,8.30
2023-01-27T11:08:47.539Z,8.30
2023-01-27T11:11:36.100Z,8.10
2023-01-27T11:14:12.665Z,8.10
2023-01-27T11:16:43.050Z,8.20
2023-01-27T11:19:28.151Z,8.30
2023-01-27T11:22:07.249Z,8.30
2023-01-27T11:24:45.229Z,8.40
2023-01-27T11:27:23.845Z,8.30
2023-01-27T11:30:01.281Z,8.50
2023-01-27T11:32:38.824Z,8.50
2023-01-27T11:35:10.850Z,8.50
2023-01-27T11:37:44.156Z,8.40
2023-01-27T11:40:30.999Z,8.40
2023-01-27T11:42:59.957Z,8.40
2023-01-27T11:45:30.494Z,8.50
2023-01-27T11:48:03.391Z,8.50
2023-01-27T11:50:33.623Z,8.50
2023-01-27T11:53:30.241Z,8.60
2023-01-27T11:56:01.954Z,8.50
2023-01-27T11:58:39.755Z,8.60
2023-01-27T12:01:13.498Z,8.60
2023-01-27T12:04:07.402Z,8.60
2023-01-27T12:06:52.959Z,8.60
2023-01-27T12:09:41.093Z,8.50
2023-01-27T12:12:14.455Z,8.50
2023-01-27T12:14:56.231Z,8.50
2023-01-27T12:17:26.205Z,8.50
2023-01-27T12:19:57.270Z,8.60
2023-01-27T12:22:32.637Z,8.70
2023-01-27T12:25:03.625Z,8.60
2023-01-27T12:27:36.891Z,8.50
2023-01-27T12:30:08.355Z,8.50
2023-01-27T12:32:42.175Z,8.40
2023-01-27T12:35:36.429Z,8.40
2023-01-27T12:38:36.638Z,8.40
2023-01-27T12:41:09.845Z,8.40
2023-01-27T12:43:55.723Z,8.40
2023-01-27T12:46:26.106Z,8.60
2023-01-27T12:49:02.851Z,8.50
2023-01-27T12:51:55.567Z,8.30
2023-01-27T12:54:24.531Z,8.40
2023-01-27T12:56:53.499Z,8.60
2023-01-27T12:59:23.655Z,8.50
2023-01-27T13:02:19.496Z,8.40
2023-01-27T13:04:59.058Z,8.30
2023-01-27T13:07:48.398Z,8.30
2023-01-27T13:10:22.874Z,8.30
2023-01-27T13:12:59.058Z,8.30
2023-01-27T13:15:29.412Z,8.30
2023-01-27T13:17:57.992Z,8.20
2023-01-27T13:20:30.491Z,8.40
2023-01-27T13:23:02.396Z,8.40
2023-01-27T13:25:47.206Z,8.40
2023-01-27T13:28:22.929Z,8.40
2023-01-27T13:30:54.339Z,8.40
2023-01-27T13:33:45.294Z,8.30
2023-01-27T13:36:17.428Z,8.30
2023-01-27T13:39:00.595Z,8.40
2023-01-27T13:41:56.257Z,8.10
2023-01-27T13:44:43.768Z,8.30
2023-01-27T13:47:23.752Z,8.30
2023-01-27T13:49:58.904Z,8.30
2023-01-27T13:52:26.236Z,8.10
2023-01-27T13:54:53.517Z,8.20
2023-01-27T13:57:23.460Z,8.00
2023-01-27T13:59:56.185Z,8.00
2023-01-27T14:02:38.369Z,8.00
2023-01-27T14:05:33.349Z,8.10
2023-01-27T14:08:13.306Z,8.20
2023-01-27T14:11:07.869Z,8.30
2023-01-27T14:13:43.823Z,8.20
2023-01-27T14:16:23.069Z,8.20
2023-01-27T14:18:57.362Z,8.20
2023-01-27T14:21:40.388Z,8.10
2023-01-27T14:24:33.114Z,8.10
2023-01-27T14:27:22.506Z,7.80
2023-01-27T14:30:13.770Z,7.80
2023-01-27T14:33:11.143Z,7.80
2023-01-27T14:36:09.180Z,7.80
2023-01-27T14:39:02.510Z,7.90
2023-01-27T14:41:39.296Z,7.80
2023-01-27T14:45:10.770Z,7.70
2023-01-27T14:47:53.102Z,7.80
2023-01-27T14:50:25.808Z,7.80
2023-01-27T14:53:05.263Z,7.90
2023-01-27T14:56:05.526Z,7.90
2023-01-27T14:58:39.841Z,7.80
2023-01-27T15:01:25.132Z,7.80
2023-01-27T15:04:26.721Z,7.80
2023-01-27T15:07:02.911Z,7.80
2023-01-27T15:09:52.318Z,7.80
2023-01-27T15:12:39.188Z,7.80
2023-01-27T15:15:25.020Z,7.70
2023-01-27T15:18:04.068Z,7.70
2023-01-27T15:20:48.572Z,7.80
2023-01-27T15:23:36.066Z,7.70
2023-01-27T15:26:07.132Z,7.80
2023-01-27T15:28:38.590Z,7.70
2023-01-27T15:31:14.970Z,7.70
2023-01-27T15:33:46.331Z,7.60
2023-01-27T15:36:18.908Z,7.50
2023-01-27T15:39:10.361Z,7.60
2023-01-27T15:41:58.170Z,7.40
2023-01-27T15:44:25.102Z,7.40
2023-01-27T15:47:02.591Z,7.50
2023-01-27T15:49:36.167Z,7.50
2023-01-27T15:52:21.592Z,7.60
2023-01-27T15:54:51.533Z,7.50
2023-01-27T15:57:38.040Z,7.60
2023-01-27T16:00:08.914Z,7.50
2023-01-27T16:02:47.103Z,7.50
2023-01-27T16:05:38.681Z,7.50
2023-01-27T16:08:13.011Z,7.60
2023-01-27T16:10:40.286Z,7.70
2023-01-27T16:13:28.103Z,7.40
2023-01-27T16:16:20.037Z,7.60
2023-01-27T16:18:53.090Z,7.50
2023-01-27T16:21:41.775Z,7.40
2023-01-27T16:24:23.094Z,7.40
2023-01-27T16:26:55.757Z,7.40
2023-01-27T16:29:40.094Z,7.60
2023-01-27T16:32:17.177Z,7.40
2023-01-27T16:34:48.455Z,7.40
2023-01-27T16:37:22.145Z,7.40
2023-01-27T16:40:06.766Z,7.40
2023-01-27T16:42:44.485Z,7.40
2023-01-27T16:45:23.095Z,7.40
2023-01-27T16:48:04.337Z,7.40
2023-01-27T16:50:37.759Z,7.50
2023-01-27T16:53:08.451Z,7.40
2023-01-27T16:55:35.453Z,7.30
2023-01-27T16:58:03.150Z,7.20
2023-01-27T17:00:35.757Z,7.30
2023-01-27T17:03:14.989Z,7.30
2023-01-27T17:05:43.166Z,7.40
2023-01-27T17:08:15.924Z,7.40
2023-01-27T17:10:51.217Z,7.30
2023-01-27T17:13:48.452Z,7.20
2023-01-27T17:16:37.738Z,7.20
2023-01-27T17:19:18.851Z,7.10
2023-01-27T17:21:53.377Z,7.00
2023-01-27T17:24:30.584Z,7.00
2023-01-27T17:27:18.435Z,7.10
2023-01-27T17:29:48.386Z,6.90
2023-01-27T17:32:21.505Z,7.00
2023-01-27T17:34:54.828Z,7.00
2023-01-27T17:37:23.659Z,7.10
2023-01-27T17:39:56.058Z,7.10
2023-01-27T17:42:25.921Z,7.20
2023-01-27T17:44:52.763Z,7.10
2023-01-27T17:47:21.755Z,7.10
2023-01-27T17:49:50.711Z,7.10
2023-01-27T17:52:24.686Z,7.20
2023-01-27T17:54:52.366Z,7.20
2023-01-27T17:57:26.825Z,7.20
2023-01-27T18:00:04.230Z,7.20
2023-01-27T18:02:36.858Z,7.10
2023-01-27T18:05:09.996Z,7.10
2023-01-27T18:07:37.038Z,7.20
2023-01-27T18:10:27.135Z,7.10
2023-01-27T18:12:55.101Z,7.00
2023-01-27T18:16:00.334Z,6.90
2023-01-27T18:18:32.861Z,6.90
2023-01-27T18:20:59.949Z,7.00
2023-01-27T18:23:52.718Z,6.90
2023-01-27T18:26:30.062Z,6.90
2023-01-27T18:29:01.647Z,6.90
2023-01-27T18:31:35.292Z,6.80
2023-01-27T18:34:05.492Z,6.90
2023-01-27T18:36:39.025Z,6.90
2023-01-27T18:39:41.525Z,6.90
2023-01-27T18:42:18.747Z,7.10
2023-01-27T18:44:48.351Z,7.00
2023-01-27T18:47:18.196Z,6.90
2023-01-27T18:49:51.906Z,6.80
2023-01-27T18:52:19.315Z,6.90
2023-01-27T18:54:46.489Z,6.80
2023-01-27T18:57:13.408Z,6.80
2023-01-27T18:59:40.294Z,6.90
2023-01-27T19:02:15.929Z,6.80
2023-01-27T19:04:45.731Z,6.80
2023-01-27T19:07:14.054Z,6.90
2023-01-27T19:09:41.049Z,7.00
2023-01-27T19:12:08.121Z,6.90
2023-01-27T19:14:36.882Z,6.90
2023-01-27T19:17:10.620Z,6.90
2023-01-27T19:19:37.535Z,6.90
2023-01-27T19:22:04.418Z,7.00
2023-01-27T19:24:33.105Z,6.80
2023-01-27T19:27:00.099Z,6.80
2023-01-27T19:29:26.913Z,6.80
2023-01-27T19:31:53.862Z,6.90
2023-01-27T19:34:20.906Z,6.80
2023-01-27T19:36:47.918Z,6.70
2023-01-27T19:39:22.750Z,6.70
2023-01-27T19:41:49.931Z,7.00
2023-01-27T19:44:17.083Z,6.90
2023-01-27T19:46:44.052Z,6.90
2023-01-27T19:49:20.086Z,6.80
2023-01-27T19:51:47.018Z,7.00
2023-01-27T19:54:13.918Z,7.00
2023-01-27T19:56:40.872Z,6.80
2023-01-27T19:59:09.656Z,6.70
2023-01-27T20:01:36.908Z,6.80
2023-01-27T20:04:04.982Z,6.90
2023-01-27T20:06:32.484Z,6.90
2023-01-27T20:09:03.648Z,6.90
2023-01-27T20:11:40.848Z,6.80
2023-01-27T20:14:16.840Z,6.80
2023-01-27T20:16:43.957Z,6.80
2023-01-27T20:19:15.013Z,6.80
2023-01-27T20:21:43.040Z,6.90
2023-01-27T20:24:17.345Z,6.80
2023-01-27T20:26:44.599Z,6.70
2023-01-27T20:29:11.819Z,6.90
2023-01-27T20:31:39.642Z,6.90
2023-01-27T20:34:07.160Z,6.70
2023-01-27T20:36:34.354Z,6.80
2023-01-27T20:39:01.595Z,6.90
2023-01-27T20:41:28.603Z,6.90
2023-01-27T20:43:57.487Z,6.90
2023-01-27T20:46:25.216Z,6.80
2023-01-27T20:48:52.210Z,6.80
2023-01-27T20:51:19.389Z,6.90
2023-01-27T20:53:46.719Z,6.80
2023-01-27T20:56:19.293Z,6.80
2023-01-27T20:58:47.256Z,6.70
2023-01-27T21:01:17.776Z,6.70
2023-01-27T21:03:47.906Z,6.80
2023-01-27T21:06:17.859Z,6.90
2023-01-27T21:08:45.048Z,6.90
2023-01-27T21:11:13.108Z,6.70
2023-01-27T21:13:40.274Z,6.80
2023-01-27T21:16:07.842Z,6.80
2023-01-27T21:18:36.688Z,6.90
2023-01-27T21:21:04.938Z,7.00
2023-01-27T21:23:33.318Z,6.90
2023-01-27T21:26:05.476Z,6.80
2023-01-27T21:28:33.893Z,6.90
2023-01-27T21:31:08.507Z,6.90
2023-01-27T21:33:36.652Z,6.80
2023-01-27T21:36:05.026Z,6.90
2023-01-27T21:38:35.109Z,6.90
2023-01-27T21:41:09.960Z,7.10
2023-01-27T21:43:55.570Z,7.00
2023-01-27T21:46:23.184Z,6.90
2023-01-27T21:48:50.433Z,6.90
2023-01-27T21:51:17.560Z,6.90
2023-01-27T21:53:44.588Z,6.80
2023-01-27T21:56:11.924Z,6.70
2023-01-27T21:58:39.188Z,6.90
2023-01-27T22:01:07.753Z,6.90
2023-01-27T22:03:35.456Z,6.90
2023-01-27T22:06:09.976Z,7.00
2023-01-27T22:08:37.477Z,7.00
2023-01-27T22:11:12.409Z,6.80
2023-01-27T22:13:39.482Z,6.80
2023-01-27T22:16:06.943Z,6.80
2023-01-27T22:18:33.797Z,6.70
2023-01-27T22:21:04.379Z,6.70
2023-01-27T22:23:31.449Z,6.70
2023-01-27T22:25:58.433Z,6.70
2023-01-27T22:28:26.590Z,6.70
2023-01-27T22:30:54.332Z,6.70
2023-01-27T22:33:21.255Z,6.90
2023-01-27T22:35:48.191Z,7.00
2023-01-27T22:38:14.972Z,7.10
2023-01-27T22:40:41.769Z,7.00
2023-01-27T22:43:10.483Z,7.00
2023-01-27T22:45:40.907Z,6.90
2023-01-27T22:48:08.871Z,6.90
2023-01-27T22:50:36.934Z,7.00
2023-01-27T22:53:05.455Z,7.00
2023-01-27T22:55:32.968Z,6.80
2023-01-27T22:57:59.964Z,6.90
2023-01-27T23:00:26.978Z,6.90
2023-01-27T23:02:54.663Z,6.90
2023-01-27T23:05:21.911Z,6.90
2023-01-27T23:07:48.712Z,6.90
2023-01-27T23:10:16.646Z,6.90
2023-01-27T23:12:43.522Z,6.80
2023-01-27T23:15:10.686Z,6.70
2023-01-27T23:17:37.764Z,6.60
2023-01-27T23:20:05.205Z,6.70
2023-01-27T23:22:32.480Z,6.60
2023-01-27T23:24:59.271Z,6.70
2023-01-27T23:27:28.533Z,6.80
2023-01-27T23:29:55.520Z,6.70
2023-01-27T23:32:22.393Z,6.60
2023-01-27T23:34:50.387Z,6.60
2023-01-27T23:37:17.496Z,6.50
2023-01-27T23:39:48.589Z,6.50
2023-01-27T23:42:17.046Z,6.40
2023-01-27T23:44:43.986Z,6.50
2023-01-27T23:47:12.149Z,6.60
2023-01-27T23:49:39.083Z,6.60
2023-01-27T23:52:06.178Z,6.60
2023-01-27T23:54:33.228Z,6.70
2023-01-27T23:57:00.662Z,6.70
2023-01-27T23:59:27.583Z,6.60
